Terminal Aerodrome Forecast
Issued by NWS Huntsville, AL

Home | Current Version | Previous Version | Text Only | Print | Product List | Glossary On
Versions: 1 2 3 4 5 6 7 8 9 10 11 12 13 14 15 16 17 18 19 20
000
FTUS44 KHUN 271130
TAFHSV
TAF
KHSV 271130Z 2712/2812 VRB02KT 6SM BR SCT250
     FM271500 25006KT P6SM SCT040
     FM280200 VRB03KT P6SM BKN050
     FM280900 VRB03KT P6SM VCTS SCT025 BKN050CB
      TEMPO 2809/2812 3SM TSRA BKN025CB=

USA.gov is the U.S. government's official web portal to all federal, state and local government web resources and services.